首页
METAR-TAF:

METAR-TAF

机场 :

維珍尼亞海灘, 弗吉尼亚州, 美国

纬度: 36-49-16N, 经度: 076-01-42W, 海拔: 6米

当前天气观测

该预报发布于54分钟前的18:56 UTC
风速7节,风向西
温度 17°C
湿度 48%
气压 1019 hPa
能見度: 16.1公里
多云层高于15000英尺
多云层高于25000英尺

METAR: KNTU 181856Z 26007KT 10SM BKN150 BKN250 17/06 A3010 RMK AO2 SLP194 T01670061

时间: 14:50 (19:50 UTC)

预报

预报有效从18日的 18点(UTC)到 19日的 15点(UTC)
风速10节,风向西南
能见度10公里或以上
少量云层高于1500英尺
散云层高于3000英尺
多云层高于15000英尺
多云层高于25000英尺
短暂存在
从 18日的 21点(UTC)到 19日的 01点(UTC)
能見度: 3200
多云层高于1500英尺
多云层高于3000英尺
多云层高于12000英尺
阴天层高于20000英尺
轻雾
从 19日的 0400点(UTC)
风速9节,风向西转西南
能見度: 6000
多云层高于500英尺
阴天层高于3000英尺
小阵雨, 轻雾
短暂存在
从 19日的 04点(UTC)到 19日的 10点(UTC)
能見度: 3200
阴天层高于500英尺
阵雨, 轻雾
从 19日的 1000点(UTC)
风速15节,风向北转西北,有时为25节阵风
能見度: 4800
散云层高于500英尺
多云层高于1500英尺
阴天层高于5000英尺
小阵雨, 轻雾
短暂存在
从 19日的 10点(UTC)到 19日的 15点(UTC)
风速20节,风向,有时为32节阵风
能見度: 3200
多云层高于500英尺
阴天层高于1500英尺
小阵雨, 轻雾

TAF: KNTU 1818/1915 22010KT 9999 FEW015 SCT030 BKN150 BKN250 QNH2997INS TEMPO 1821/1901 3200 BR BKN015 BKN030 BKN120 OVC200 FM190400 24009KT 6000 -SHRA BR BKN005 OVC030 QNH2997INS TEMPO 1904/1910 3200 SHRA BR OVC005 FM191000 34015G25KT 4800 -SHRA BR SCT005 BKN015 OVC050 QNH2999INS TEMPO 1910/1915 36020G32KT 3200 -SHRA BR BKN005 OVC015 T18/1819Z T09/1909Z AMD 1825Z FN20008

超过4000个机场的气象观测和天气预报(METAR&TAF报告)。

可查询的气象台以黄色和红色小点在地图上表示。

将鼠标移到小点上方,可查看气象台名称。

然后点击查看天气观测和预报。

如需切换地图:点击带黑十字的绿色按钮放大地图;点击带横线的绿色按钮缩小地图;或者点击绿色箭头查看邻近地区的地图。


METAR-TAF: